Elkton, Tennessee
Current Conditions -  °F | °C
As of 11:35 PM on Sunday 19 Oct 2014 (Local Time) from KFYM Reporting Station
Clear Clear  
Wind Chill: 39°   Ceiling: Unl
Heat Index: 46°   Visibility: 10mi
Dew Point: 43°   Wind: 18mph
Humidity: 87%   Direction: 90°E
Pressure: 30.1"   Gusts: 207mph
Location:  35.05°N, 86.89°W
Report Text: KFYM 200435Z AUTO 09016G180KT 10SM CLR 08/06 A3010 RMK
Loading
Personal Weather Stations






























Interactive Weather Map
Tropical Storm Tracking
New forecast layout! Learn more

10-Day Weather Forecast

Advertisements
Track Severe Weather on mobile